AAL335 KSFO-KLAS
Flight info
| Callsign | AAL335 |
|---|---|
| Flight time | 1h 8m |
| Altitude | 33000 |
| Route | WESLA5 NTELL Q174 FLCHR COKTL4 |
| Aircraft | A320/M-SDE3FGHIRWY/LB1 |
Departure
| Time | 2026-05-07 17:08 |
|---|---|
| Airport | San Francisco International Airport (KSFO) |
Arrival
| Time | 2026-05-07 18:17 |
|---|---|
| Airport | Harry Reid International Airport (KLAS) |
| Time | Latitude | Longitude | Altitude | Speed | Heading |
|---|---|---|---|---|---|
| 2026-05-07 16:34 | 37.62649 | -122.37372 | 26 ft | 0 kts | 118° |
| 2026-05-07 16:51 | 37.62648 | -122.37371 | 22 ft | 0 kts | 131° |
| 2026-05-07 16:51 | 37.62647 | -122.37371 | 22 ft | 1 kts | 139° |
| 2026-05-07 16:52 | 37.62639 | -122.37378 | 24 ft | 3 kts | 216° |
| 2026-05-07 16:52 | 37.62604 | -122.37412 | 22 ft | 10 kts | 218° |
| 2026-05-07 16:52 | 37.62541 | -122.37485 | 24 ft | 11 kts | 224° |
| 2026-05-07 16:52 | 37.62518 | -122.37512 | 23 ft | 0 kts | 224° |
| 2026-05-07 16:53 | 37.62514 | -122.37519 | 24 ft | 2 kts | 228° |
| 2026-05-07 16:53 | 37.62500 | -122.37543 | 25 ft | 5 kts | 238° |
| 2026-05-07 16:53 | 37.62483 | -122.37588 | 24 ft | 6 kts | 246° |
| 2026-05-07 16:53 | 37.62477 | -122.37602 | 22 ft | 1 kts | 234° |
| 2026-05-07 16:54 | 37.62466 | -122.37609 | 22 ft | 3 kts | 210° |
| 2026-05-07 16:54 | 37.62441 | -122.37627 | 22 ft | 5 kts | 208° |
| 2026-05-07 16:54 | 37.62408 | -122.37648 | 24 ft | 0 kts | 207° |
| 2026-05-07 16:55 | 37.62407 | -122.37649 | 23 ft | 1 kts | 207° |
| 2026-05-07 16:55 | 37.62394 | -122.37657 | 24 ft | 3 kts | 208° |
| 2026-05-07 16:55 | 37.62367 | -122.37675 | 22 ft | 6 kts | 208° |
| 2026-05-07 16:55 | 37.62334 | -122.37697 | 23 ft | 0 kts | 207° |
| 2026-05-07 16:56 | 37.62333 | -122.37696 | 23 ft | 0 kts | 191° |
| 2026-05-07 16:56 | 37.62331 | -122.37692 | 23 ft | 1 kts | 148° |
| 2026-05-07 16:56 | 37.62309 | -122.37625 | 22 ft | 4 kts | 112° |
| 2026-05-07 16:57 | 37.62289 | -122.37570 | 22 ft | 7 kts | 117° |
| 2026-05-07 16:57 | 37.62272 | -122.37540 | 22 ft | 2 kts | 134° |
| 2026-05-07 16:57 | 37.62265 | -122.37528 | 22 ft | 3 kts | 128° |
| 2026-05-07 16:57 | 37.62246 | -122.37480 | 23 ft | 10 kts | 114° |
| 2026-05-07 16:58 | 37.62229 | -122.37431 | 22 ft | 2 kts | 115° |
| 2026-05-07 16:58 | 37.62210 | -122.37386 | 22 ft | 9 kts | 118° |
| 2026-05-07 16:58 | 37.62167 | -122.37287 | 22 ft | 16 kts | 118° |
| 2026-05-07 16:58 | 37.62103 | -122.37135 | 22 ft | 23 kts | 118° |
| 2026-05-07 16:59 | 37.62021 | -122.36937 | 23 ft | 27 kts | 117° |
| 2026-05-07 16:59 | 37.61930 | -122.36718 | 23 ft | 29 kts | 118° |
| 2026-05-07 16:59 | 37.61834 | -122.36488 | 22 ft | 30 kts | 115° |
| 2026-05-07 16:59 | 37.61744 | -122.36266 | 22 ft | 20 kts | 119° |
| 2026-05-07 17:00 | 37.61673 | -122.36109 | 22 ft | 21 kts | 118° |
| 2026-05-07 17:00 | 37.61604 | -122.35942 | 22 ft | 21 kts | 119° |
| 2026-05-07 17:00 | 37.61543 | -122.35799 | 22 ft | 18 kts | 118° |
| 2026-05-07 17:00 | 37.61493 | -122.35689 | 23 ft | 11 kts | 125° |
| 2026-05-07 17:01 | 37.61464 | -122.35667 | 22 ft | 0 kts | 176° |
| 2026-05-07 17:01 | 37.61458 | -122.35668 | 22 ft | 2 kts | 184° |
| 2026-05-07 17:01 | 37.61451 | -122.35670 | 22 ft | 0 kts | 191° |
| 2026-05-07 17:02 | 37.61450 | -122.35671 | 22 ft | 1 kts | 195° |
| 2026-05-07 17:02 | 37.61448 | -122.35672 | 22 ft | 0 kts | 204° |
| 2026-05-07 17:02 | 37.61438 | -122.35679 | 23 ft | 3 kts | 206° |
| 2026-05-07 17:02 | 37.61406 | -122.35701 | 22 ft | 9 kts | 210° |
| 2026-05-07 17:03 | 37.61350 | -122.35739 | 22 ft | 9 kts | 207° |
| 2026-05-07 17:03 | 37.61288 | -122.35779 | 22 ft | 13 kts | 207° |
| 2026-05-07 17:03 | 37.61265 | -122.35794 | 22 ft | 0 kts | 208° |
| 2026-05-07 17:05 | 37.61262 | -122.35796 | 22 ft | 3 kts | 208° |
| 2026-05-07 17:05 | 37.61220 | -122.35830 | 22 ft | 11 kts | 222° |
| 2026-05-07 17:06 | 37.61214 | -122.35948 | 23 ft | 17 kts | 297° |
| 2026-05-07 17:06 | 37.61219 | -122.35959 | 23 ft | 0 kts | 298° |
| 2026-05-07 17:07 | 37.61223 | -122.35969 | 22 ft | 11 kts | 299° |
| 2026-05-07 17:08 | 37.61380 | -122.36332 | 22 ft | 81 kts | 297° |
| 2026-05-07 17:08 | 37.61730 | -122.37179 | 22 ft | 134 kts | 297° |
| 2026-05-07 17:08 | 37.62220 | -122.38352 | 243 ft | 156 kts | 296° |
| 2026-05-07 17:08 | 37.62711 | -122.39591 | 827 ft | 159 kts | 296° |
| 2026-05-07 17:09 | 37.63047 | -122.40421 | 1252 ft | 161 kts | 298° |
| 2026-05-07 17:09 | 37.63793 | -122.42116 | 1890 ft | 178 kts | 298° |
| 2026-05-07 17:09 | 37.64212 | -122.43063 | 2046 ft | 194 kts | 298° |
| 2026-05-07 17:09 | 37.64914 | -122.44657 | 2297 ft | 222 kts | 299° |
| 2026-05-07 17:10 | 37.65690 | -122.46432 | 2856 ft | 238 kts | 299° |
| 2026-05-07 17:10 | 37.66498 | -122.48272 | 3714 ft | 241 kts | 297° |
| 2026-05-07 17:10 | 37.66902 | -122.50373 | 4257 ft | 259 kts | 264° |
| 2026-05-07 17:10 | 37.66212 | -122.52479 | 4996 ft | 268 kts | 229° |
| 2026-05-07 17:11 | 37.64643 | -122.53730 | 5837 ft | 273 kts | 194° |
| 2026-05-07 17:11 | 37.62751 | -122.53717 | 6713 ft | 278 kts | 168° |
| 2026-05-07 17:11 | 37.60903 | -122.52953 | 7555 ft | 281 kts | 159° |
| 2026-05-07 17:11 | 37.59096 | -122.51969 | 8355 ft | 285 kts | 158° |
| 2026-05-07 17:12 | 37.57265 | -122.50976 | 9166 ft | 288 kts | 159° |
| 2026-05-07 17:12 | 37.55388 | -122.50045 | 9982 ft | 292 kts | 161° |
| 2026-05-07 17:12 | 37.53438 | -122.49175 | 10439 ft | 307 kts | 163° |
| 2026-05-07 17:12 | 37.51337 | -122.48289 | 10631 ft | 330 kts | 159° |
| 2026-05-07 17:13 | 37.49264 | -122.46885 | 11005 ft | 345 kts | 145° |
| 2026-05-07 17:13 | 37.47483 | -122.44821 | 11608 ft | 352 kts | 130° |
| 2026-05-07 17:13 | 37.46009 | -122.42333 | 12255 ft | 357 kts | 127° |
| 2026-05-07 17:13 | 37.44545 | -122.39797 | 12924 ft | 360 kts | 127° |
| 2026-05-07 17:14 | 37.43088 | -122.37262 | 13601 ft | 363 kts | 126° |
| 2026-05-07 17:14 | 37.41689 | -122.34566 | 14242 ft | 366 kts | 118° |
| 2026-05-07 17:14 | 37.40722 | -122.31628 | 14799 ft | 370 kts | 107° |
| 2026-05-07 17:14 | 37.40088 | -122.28474 | 15352 ft | 374 kts | 103° |
| 2026-05-07 17:15 | 37.39465 | -122.25283 | 15926 ft | 377 kts | 103° |
| 2026-05-07 17:15 | 37.38830 | -122.22065 | 16472 ft | 381 kts | 103° |
| 2026-05-07 17:15 | 37.38184 | -122.18828 | 17027 ft | 385 kts | 103° |
| 2026-05-07 17:15 | 37.37525 | -122.15533 | 17621 ft | 388 kts | 103° |
| 2026-05-07 17:16 | 37.36867 | -122.12235 | 18209 ft | 391 kts | 103° |
| 2026-05-07 17:16 | 37.36200 | -122.08900 | 18786 ft | 394 kts | 103° |
| 2026-05-07 17:16 | 37.35520 | -122.05504 | 19328 ft | 397 kts | 103° |
| 2026-05-07 17:16 | 37.34842 | -122.02121 | 19893 ft | 400 kts | 103° |
| 2026-05-07 17:17 | 37.34162 | -121.98719 | 20469 ft | 402 kts | 103° |
| 2026-05-07 17:17 | 37.33479 | -121.95304 | 21030 ft | 405 kts | 103° |
| 2026-05-07 17:17 | 37.32797 | -121.91907 | 21564 ft | 408 kts | 103° |
| 2026-05-07 17:17 | 37.32090 | -121.88407 | 22077 ft | 410 kts | 103° |
| 2026-05-07 17:18 | 37.31395 | -121.84967 | 22584 ft | 413 kts | 103° |
| 2026-05-07 17:18 | 37.30686 | -121.81457 | 23079 ft | 416 kts | 103° |
| 2026-05-07 17:18 | 37.29971 | -121.77919 | 23576 ft | 418 kts | 103° |
| 2026-05-07 17:18 | 37.29252 | -121.74372 | 24028 ft | 420 kts | 103° |
| 2026-05-07 17:19 | 37.28527 | -121.70807 | 24430 ft | 423 kts | 103° |
| 2026-05-07 17:19 | 37.27797 | -121.67224 | 24820 ft | 425 kts | 103° |
| 2026-05-07 17:19 | 37.27063 | -121.63622 | 25198 ft | 427 kts | 103° |
| 2026-05-07 17:19 | 37.26325 | -121.60003 | 25549 ft | 429 kts | 103° |
| 2026-05-07 17:20 | 37.25582 | -121.56367 | 25921 ft | 431 kts | 103° |
| 2026-05-07 17:20 | 37.24833 | -121.52714 | 26295 ft | 433 kts | 103° |
| 2026-05-07 17:20 | 37.24082 | -121.49044 | 26668 ft | 435 kts | 103° |
| 2026-05-07 17:20 | 37.23327 | -121.45363 | 27049 ft | 437 kts | 104° |
| 2026-05-07 17:21 | 37.22565 | -121.41667 | 27424 ft | 439 kts | 104° |
| 2026-05-07 17:21 | 37.21796 | -121.37944 | 27777 ft | 441 kts | 104° |
| 2026-05-07 17:21 | 37.21022 | -121.34214 | 28132 ft | 443 kts | 104° |
| 2026-05-07 17:21 | 37.20245 | -121.30468 | 28491 ft | 445 kts | 104° |
| 2026-05-07 17:22 | 37.19464 | -121.26700 | 28828 ft | 447 kts | 104° |
| 2026-05-07 17:22 | 37.18683 | -121.22927 | 29161 ft | 450 kts | 104° |
| 2026-05-07 17:22 | 37.17904 | -121.19163 | 29484 ft | 452 kts | 104° |
| 2026-05-07 17:22 | 37.17102 | -121.15306 | 29943 ft | 451 kts | 104° |
| 2026-05-07 17:23 | 37.16307 | -121.11519 | 30405 ft | 449 kts | 104° |
| 2026-05-07 17:23 | 37.15524 | -121.07783 | 30794 ft | 448 kts | 104° |
| 2026-05-07 17:23 | 37.14732 | -121.04010 | 31167 ft | 448 kts | 104° |
| 2026-05-07 17:23 | 37.13937 | -121.00228 | 31554 ft | 448 kts | 104° |
| 2026-05-07 17:24 | 37.13145 | -120.96459 | 31950 ft | 447 kts | 104° |
| 2026-05-07 17:24 | 37.12356 | -120.92706 | 32376 ft | 446 kts | 104° |
| 2026-05-07 17:24 | 37.11567 | -120.88957 | 32786 ft | 445 kts | 104° |
| 2026-05-07 17:24 | 37.10774 | -120.85195 | 32927 ft | 446 kts | 104° |
| 2026-05-07 17:25 | 37.09177 | -120.77675 | 32959 ft | 447 kts | 103° |
| 2026-05-07 17:25 | 37.07581 | -120.70159 | 32959 ft | 447 kts | 104° |
| 2026-05-07 17:26 | 37.05978 | -120.62640 | 32960 ft | 447 kts | 104° |
| 2026-05-07 17:26 | 37.04370 | -120.55124 | 32962 ft | 447 kts | 104° |
| 2026-05-07 17:27 | 37.02754 | -120.47604 | 32967 ft | 447 kts | 104° |
| 2026-05-07 17:27 | 37.01131 | -120.40090 | 32972 ft | 447 kts | 104° |
| 2026-05-07 17:28 | 36.99518 | -120.32634 | 32979 ft | 447 kts | 104° |
| 2026-05-07 17:28 | 36.97895 | -120.25137 | 32984 ft | 446 kts | 104° |
| 2026-05-07 17:29 | 36.96272 | -120.17651 | 32988 ft | 446 kts | 104° |
| 2026-05-07 17:29 | 36.94636 | -120.10168 | 33159 ft | 447 kts | 104° |
| 2026-05-07 17:30 | 36.92993 | -120.02670 | 33167 ft | 447 kts | 104° |
| 2026-05-07 17:30 | 36.91380 | -119.95179 | 33161 ft | 446 kts | 100° |
| 2026-05-07 17:31 | 36.91121 | -119.87555 | 33162 ft | 442 kts | 81° |
| 2026-05-07 17:31 | 36.92840 | -119.80231 | 33158 ft | 440 kts | 67° |
| 2026-05-07 17:32 | 36.95171 | -119.73151 | 33147 ft | 441 kts | 67° |
| 2026-05-07 17:32 | 36.97482 | -119.66056 | 33140 ft | 441 kts | 67° |
| 2026-05-07 17:33 | 36.99788 | -119.58954 | 33133 ft | 441 kts | 67° |
| 2026-05-07 17:33 | 37.02100 | -119.51835 | 33126 ft | 442 kts | 67° |
| 2026-05-07 17:34 | 37.04410 | -119.44707 | 33112 ft | 442 kts | 66° |
| 2026-05-07 17:34 | 37.06723 | -119.37571 | 33111 ft | 443 kts | 66° |
| 2026-05-07 17:35 | 37.09038 | -119.30428 | 33121 ft | 443 kts | 66° |
| 2026-05-07 17:35 | 37.11345 | -119.23272 | 33135 ft | 443 kts | 66° |
| 2026-05-07 17:36 | 37.13626 | -119.16144 | 33137 ft | 443 kts | 66° |
| 2026-05-07 17:36 | 37.15921 | -119.08977 | 33148 ft | 443 kts | 66° |
| 2026-05-07 17:37 | 37.18215 | -119.01808 | 33147 ft | 443 kts | 67° |
| 2026-05-07 17:37 | 37.20497 | -118.94629 | 33160 ft | 443 kts | 66° |
| 2026-05-07 17:38 | 37.22784 | -118.87453 | 33160 ft | 443 kts | 66° |
| 2026-05-07 17:38 | 37.25059 | -118.80267 | 33157 ft | 443 kts | 66° |
| 2026-05-07 17:39 | 37.27245 | -118.73050 | 33147 ft | 444 kts | 72° |
| 2026-05-07 17:39 | 37.28175 | -118.65424 | 33146 ft | 446 kts | 82° |
| 2026-05-07 17:40 | 37.28779 | -118.57669 | 33161 ft | 446 kts | 82° |
| 2026-05-07 17:40 | 37.29381 | -118.49913 | 33179 ft | 446 kts | 82° |
| 2026-05-07 17:41 | 37.29965 | -118.42153 | 33199 ft | 446 kts | 83° |
| 2026-05-07 17:41 | 37.30546 | -118.34398 | 33205 ft | 446 kts | 82° |
| 2026-05-07 17:42 | 37.31126 | -118.26648 | 33197 ft | 446 kts | 82° |
| 2026-05-07 17:42 | 37.31705 | -118.18892 | 33172 ft | 446 kts | 82° |
| 2026-05-07 17:43 | 37.32267 | -118.11191 | 33065 ft | 446 kts | 83° |
| 2026-05-07 17:43 | 37.32825 | -118.03436 | 33074 ft | 446 kts | 82° |
| 2026-05-07 17:44 | 37.33388 | -117.95672 | 33068 ft | 446 kts | 82° |
| 2026-05-07 17:44 | 37.33944 | -117.87913 | 33069 ft | 446 kts | 82° |
| 2026-05-07 17:45 | 37.34491 | -117.80153 | 33073 ft | 446 kts | 82° |
| 2026-05-07 17:45 | 37.35029 | -117.72493 | 33073 ft | 446 kts | 82° |
| 2026-05-07 17:46 | 37.35565 | -117.64729 | 33072 ft | 446 kts | 83° |
| 2026-05-07 17:46 | 37.36089 | -117.57016 | 33076 ft | 446 kts | 83° |
| 2026-05-07 17:47 | 37.36612 | -117.49249 | 33078 ft | 446 kts | 83° |
| 2026-05-07 17:47 | 37.37142 | -117.41485 | 33090 ft | 446 kts | 83° |
| 2026-05-07 17:48 | 37.37577 | -117.33709 | 33089 ft | 448 kts | 89° |
| 2026-05-07 17:48 | 37.36337 | -117.26029 | 33088 ft | 454 kts | 110° |
| 2026-05-07 17:49 | 37.34899 | -117.22488 | 33083 ft | 457 kts | 121° |
| 2026-05-07 17:49 | 37.32967 | -117.19307 | 33081 ft | 460 kts | 130° |
| 2026-05-07 17:49 | 37.28681 | -117.13340 | 33079 ft | 460 kts | 130° |
| 2026-05-07 17:50 | 37.24388 | -117.07362 | 33076 ft | 461 kts | 130° |
| 2026-05-07 17:50 | 37.20091 | -117.01399 | 33072 ft | 461 kts | 130° |
| 2026-05-07 17:51 | 37.15790 | -116.95446 | 33065 ft | 461 kts | 130° |
| 2026-05-07 17:51 | 37.11482 | -116.89504 | 33067 ft | 461 kts | 131° |
| 2026-05-07 17:52 | 37.06482 | -116.84450 | 33068 ft | 464 kts | 143° |
| 2026-05-07 17:52 | 37.01189 | -116.79915 | 33059 ft | 464 kts | 143° |
| 2026-05-07 17:53 | 36.95867 | -116.75347 | 33047 ft | 464 kts | 143° |
| 2026-05-07 17:53 | 36.90541 | -116.70778 | 33050 ft | 464 kts | 143° |
| 2026-05-07 17:54 | 36.87877 | -116.68497 | 32845 ft | 464 kts | 143° |
| 2026-05-07 17:54 | 36.85217 | -116.66220 | 32589 ft | 464 kts | 143° |
| 2026-05-07 17:54 | 36.82555 | -116.63945 | 32333 ft | 464 kts | 143° |
| 2026-05-07 17:54 | 36.79892 | -116.61673 | 32017 ft | 462 kts | 143° |
| 2026-05-07 17:55 | 36.77241 | -116.59416 | 31418 ft | 460 kts | 143° |
| 2026-05-07 17:55 | 36.74603 | -116.57169 | 30834 ft | 458 kts | 143° |
| 2026-05-07 17:55 | 36.71970 | -116.54930 | 30219 ft | 457 kts | 143° |
| 2026-05-07 17:55 | 36.69351 | -116.52706 | 29606 ft | 454 kts | 143° |
| 2026-05-07 17:56 | 36.66756 | -116.50490 | 29032 ft | 450 kts | 142° |
| 2026-05-07 17:56 | 36.64385 | -116.48004 | 28477 ft | 443 kts | 132° |
| 2026-05-07 17:56 | 36.62355 | -116.45217 | 27937 ft | 437 kts | 128° |
| 2026-05-07 17:56 | 36.60359 | -116.42378 | 27386 ft | 434 kts | 128° |
| 2026-05-07 17:57 | 36.58374 | -116.39564 | 26835 ft | 431 kts | 129° |
| 2026-05-07 17:57 | 36.57063 | -116.37712 | 26482 ft | 429 kts | 129° |
| 2026-05-07 17:57 | 36.54434 | -116.34001 | 25774 ft | 426 kts | 129° |
| 2026-05-07 17:57 | 36.52478 | -116.31245 | 25251 ft | 424 kts | 129° |
| 2026-05-07 17:58 | 36.50532 | -116.28506 | 24747 ft | 422 kts | 129° |
| 2026-05-07 17:58 | 36.48595 | -116.25782 | 24272 ft | 420 kts | 129° |
| 2026-05-07 17:58 | 36.46675 | -116.23085 | 24037 ft | 415 kts | 129° |
| 2026-05-07 17:58 | 36.44769 | -116.20403 | 23989 ft | 414 kts | 129° |
| 2026-05-07 17:59 | 36.42864 | -116.17720 | 24004 ft | 414 kts | 129° |
| 2026-05-07 17:59 | 36.40957 | -116.15039 | 24004 ft | 414 kts | 129° |
| 2026-05-07 17:59 | 36.39048 | -116.12360 | 24021 ft | 414 kts | 129° |
| 2026-05-07 17:59 | 36.37162 | -116.09717 | 24023 ft | 414 kts | 129° |
| 2026-05-07 18:00 | 36.35255 | -116.07042 | 23991 ft | 413 kts | 129° |
| 2026-05-07 18:00 | 36.33351 | -116.04372 | 23487 ft | 413 kts | 129° |
| 2026-05-07 18:00 | 36.31452 | -116.01711 | 22960 ft | 411 kts | 129° |
| 2026-05-07 18:00 | 36.29560 | -115.99068 | 22609 ft | 403 kts | 129° |
| 2026-05-07 18:01 | 36.27750 | -115.96555 | 22439 ft | 380 kts | 129° |
| 2026-05-07 18:01 | 36.26021 | -115.94158 | 21943 ft | 368 kts | 129° |
| 2026-05-07 18:01 | 36.24353 | -115.91797 | 21356 ft | 360 kts | 127° |
| 2026-05-07 18:01 | 36.22795 | -115.89422 | 20777 ft | 352 kts | 125° |
| 2026-05-07 18:02 | 36.19852 | -115.84665 | 19495 ft | 344 kts | 124° |
| 2026-05-07 18:02 | 36.18405 | -115.82314 | 18905 ft | 341 kts | 124° |
| 2026-05-07 18:02 | 36.16968 | -115.80002 | 18321 ft | 337 kts | 125° |
| 2026-05-07 18:03 | 36.15541 | -115.77727 | 17627 ft | 333 kts | 125° |
| 2026-05-07 18:03 | 36.14128 | -115.75479 | 17004 ft | 329 kts | 125° |
| 2026-05-07 18:03 | 36.12751 | -115.73240 | 16356 ft | 324 kts | 120° |
| 2026-05-07 18:03 | 36.11813 | -115.70762 | 15736 ft | 316 kts | 107° |
| 2026-05-07 18:04 | 36.11097 | -115.68246 | 15093 ft | 313 kts | 107° |
| 2026-05-07 18:04 | 36.10384 | -115.65716 | 14460 ft | 310 kts | 107° |
| 2026-05-07 18:04 | 36.09685 | -115.63225 | 14028 ft | 304 kts | 107° |
| 2026-05-07 18:04 | 36.08986 | -115.60739 | 13797 ft | 309 kts | 107° |
| 2026-05-07 18:05 | 36.08280 | -115.58234 | 13524 ft | 308 kts | 107° |
| 2026-05-07 18:05 | 36.07573 | -115.55730 | 13273 ft | 308 kts | 107° |
| 2026-05-07 18:05 | 36.06871 | -115.53237 | 13012 ft | 307 kts | 107° |
| 2026-05-07 18:05 | 36.06170 | -115.50750 | 12755 ft | 306 kts | 107° |
| 2026-05-07 18:06 | 36.05469 | -115.48271 | 12516 ft | 304 kts | 107° |
| 2026-05-07 18:06 | 36.04775 | -115.45813 | 12269 ft | 302 kts | 107° |
| 2026-05-07 18:06 | 36.04083 | -115.43361 | 12019 ft | 301 kts | 107° |
| 2026-05-07 18:06 | 36.03372 | -115.40930 | 11767 ft | 301 kts | 109° |
| 2026-05-07 18:07 | 36.02627 | -115.38523 | 11530 ft | 298 kts | 109° |
| 2026-05-07 18:07 | 36.01920 | -115.36143 | 11282 ft | 293 kts | 104° |
| 2026-05-07 18:07 | 36.01546 | -115.33706 | 11042 ft | 286 kts | 92° |
| 2026-05-07 18:07 | 36.01424 | -115.31275 | 10809 ft | 282 kts | 91° |
| 2026-05-07 18:08 | 36.01306 | -115.28877 | 10599 ft | 278 kts | 91° |
| 2026-05-07 18:08 | 36.01189 | -115.26538 | 10372 ft | 275 kts | 91° |
| 2026-05-07 18:08 | 36.01071 | -115.24193 | 10137 ft | 273 kts | 91° |
| 2026-05-07 18:08 | 36.00954 | -115.21862 | 9933 ft | 270 kts | 91° |
| 2026-05-07 18:09 | 36.00839 | -115.19535 | 9811 ft | 271 kts | 91° |
| 2026-05-07 18:09 | 36.00723 | -115.17210 | 9753 ft | 271 kts | 91° |
| 2026-05-07 18:09 | 36.00607 | -115.14882 | 9687 ft | 272 kts | 91° |
| 2026-05-07 18:09 | 36.00491 | -115.12555 | 9582 ft | 271 kts | 91° |
| 2026-05-07 18:10 | 36.00375 | -115.10233 | 9455 ft | 271 kts | 91° |
| 2026-05-07 18:10 | 36.00259 | -115.07889 | 9045 ft | 275 kts | 92° |
| 2026-05-07 18:10 | 36.00180 | -115.06320 | 8791 ft | 277 kts | 92° |
| 2026-05-07 18:10 | 36.00059 | -115.03941 | 8422 ft | 279 kts | 92° |
| 2026-05-07 18:11 | 35.99935 | -115.01545 | 8052 ft | 280 kts | 92° |
| 2026-05-07 18:11 | 35.99857 | -114.99140 | 7661 ft | 280 kts | 90° |
| 2026-05-07 18:11 | 35.99829 | -114.95954 | 7214 ft | 280 kts | 89° |
| 2026-05-07 18:11 | 35.99900 | -114.93555 | 6851 ft | 279 kts | 77° |
| 2026-05-07 18:12 | 36.00380 | -114.92064 | 6610 ft | 277 kts | 54° |
| 2026-05-07 18:12 | 36.01830 | -114.90557 | 6245 ft | 275 kts | 22° |
| 2026-05-07 18:12 | 36.03668 | -114.90144 | 5881 ft | 273 kts | 357° |
| 2026-05-07 18:12 | 36.05470 | -114.90814 | 5335 ft | 270 kts | 328° |
| 2026-05-07 18:13 | 36.06751 | -114.92400 | 5093 ft | 256 kts | 301° |
| 2026-05-07 18:13 | 36.07328 | -114.94406 | 4832 ft | 244 kts | 277° |
| 2026-05-07 18:13 | 36.07364 | -114.96453 | 4560 ft | 233 kts | 271° |
| 2026-05-07 18:13 | 36.07362 | -114.98426 | 4263 ft | 226 kts | 271° |
| 2026-05-07 18:14 | 36.07363 | -115.00327 | 4001 ft | 216 kts | 271° |
| 2026-05-07 18:14 | 36.07364 | -115.02141 | 3732 ft | 207 kts | 270° |
| 2026-05-07 18:14 | 36.07365 | -115.03876 | 3458 ft | 195 kts | 270° |
| 2026-05-07 18:14 | 36.07365 | -115.05470 | 3229 ft | 177 kts | 270° |
| 2026-05-07 18:15 | 36.07365 | -115.06914 | 3039 ft | 162 kts | 271° |
| 2026-05-07 18:15 | 36.07366 | -115.08271 | 2811 ft | 155 kts | 269° |
| 2026-05-07 18:15 | 36.07366 | -115.09586 | 2600 ft | 154 kts | 270° |
| 2026-05-07 18:15 | 36.07366 | -115.10905 | 2384 ft | 153 kts | 270° |
| 2026-05-07 18:16 | 36.07362 | -115.12220 | 2204 ft | 153 kts | 271° |
| 2026-05-07 18:16 | 36.07370 | -115.13514 | 2075 ft | 141 kts | 270° |
| 2026-05-07 18:16 | 36.07369 | -115.14427 | 2090 ft | 64 kts | 269° |
| 2026-05-07 18:16 | 36.07370 | -115.14885 | 2096 ft | 50 kts | 270° |
| 2026-05-07 18:17 | 36.07379 | -115.15260 | 2103 ft | 35 kts | 283° |
| 2026-05-07 18:17 | 36.07425 | -115.15412 | 2106 ft | 0 kts | 298° |
| 2026-05-07 18:17 | 36.07429 | -115.15421 | 2106 ft | 2 kts | 298° |
| 2026-05-07 18:17 | 36.07442 | -115.15450 | 2106 ft | 5 kts | 299° |
| 2026-05-07 18:18 | 36.07464 | -115.15497 | 2106 ft | 8 kts | 300° |
| 2026-05-07 18:18 | 36.07504 | -115.15577 | 2109 ft | 14 kts | 306° |
| 2026-05-07 18:18 | 36.07579 | -115.15673 | 2117 ft | 16 kts | 316° |
| 2026-05-07 18:18 | 36.07671 | -115.15779 | 2121 ft | 18 kts | 316° |
| 2026-05-07 18:19 | 36.07743 | -115.15827 | 2116 ft | 0 kts | 351° |
| 2026-05-07 18:19 | 36.07764 | -115.15827 | 2115 ft | 7 kts | 0° |
| 2026-05-07 18:19 | 36.07846 | -115.15826 | 2110 ft | 11 kts | 10° |
| 2026-05-07 18:19 | 36.07881 | -115.15718 | 2105 ft | 20 kts | 94° |
| 2026-05-07 18:20 | 36.07877 | -115.15512 | 2101 ft | 26 kts | 89° |
| 2026-05-07 18:20 | 36.07878 | -115.15281 | 2099 ft | 26 kts | 89° |
| 2026-05-07 18:20 | 36.07875 | -115.15054 | 2098 ft | 27 kts | 95° |
| 2026-05-07 18:20 | 36.07864 | -115.14886 | 2098 ft | 22 kts | 94° |
| 2026-05-07 18:21 | 36.07856 | -115.14753 | 2097 ft | 20 kts | 95° |
| 2026-05-07 18:21 | 36.07845 | -115.14607 | 2096 ft | 13 kts | 95° |
| 2026-05-07 18:21 | 36.07849 | -115.14510 | 2096 ft | 12 kts | 61° |
| 2026-05-07 18:21 | 36.07929 | -115.14483 | 2096 ft | 13 kts | 356° |
| 2026-05-07 18:22 | 36.08027 | -115.14483 | 2097 ft | 14 kts | 1° |
| 2026-05-07 18:22 | 36.08089 | -115.14501 | 2097 ft | 14 kts | 329° |
| 2026-05-07 18:22 | 36.08089 | -115.14597 | 2097 ft | 5 kts | 251° |
| 2026-05-07 18:22 | 36.08088 | -115.14599 | 2097 ft | 0 kts | 252° |